Time,TemperatureF,DewpointF,PressureIn,WindDirection,WindDirectionDegrees,WindSpeedMPH,WindSpeedGustMPH,Humidity,HourlyPrecipIn,Conditions,Clouds,dailyrainin,SoftwareType,DateUTC
2013-11-15 00:02:00,27.3,26.8,30.05,NNE,22,0.0,-999.0,98,-99.99,,,0.00,Acu-Link.com,2013-11-15 05:02:00,
2013-11-15 00:17:00,27.1,26.6,30.04,ENE,67,0.0,-999.0,98,-99.99,,,0.00,Acu-Link.com,2013-11-15 05:17:00,
2013-11-15 00:32:00,27.0,26.5,30.05,NE,45,0.0,-999.0,98,-99.99,,,0.00,Acu-Link.com,2013-11-15 05:32:00,
2013-11-15 00:47:00,26.8,26.3,30.05,NW,315,0.0,-999.0,98,-99.99,,,0.00,Acu-Link.com,2013-11-15 05:47:00,
2013-11-15 01:02:00,26.8,26.3,30.05,WNW,292,0.0,-999.0,98,-99.99,,,0.00,Acu-Link.com,2013-11-15 06:02:00,
2013-11-15 01:18:00,26.6,26.1,30.06,ESE,112,0.0,-999.0,98,-99.99,,,0.00,Acu-Link.com,2013-11-15 06:18:00,
2013-11-15 01:33:00,26.4,25.9,30.06,NNE,22,0.0,-999.0,98,-99.99,,,0.00,Acu-Link.com,2013-11-15 06:33:00,
2013-11-15 01:48:00,26.2,25.7,30.06,NE,45,0.0,-999.0,98,-99.99,,,0.00,Acu-Link.com,2013-11-15 06:48:00,
2013-11-15 02:04:00,26.2,25.7,30.06,East,90,0.0,-999.0,98,-99.99,,,0.00,Acu-Link.com,2013-11-15 07:04:00,
2013-11-15 02:19:00,26.1,25.6,30.06,NE,45,0.0,-999.0,98,-99.99,,,0.00,Acu-Link.com,2013-11-15 07:19:00,
2013-11-15 02:34:00,26.1,25.6,30.06,North,0,0.0,-999.0,98,-99.99,,,0.00,Acu-Link.com,2013-11-15 07:34:00,
2013-11-15 02:49:00,26.1,25.6,30.06,SSE,157,0.0,-999.0,98,-99.99,,,0.00,Acu-Link.com,2013-11-15 07:49:00,
2013-11-15 03:05:00,26.1,25.6,30.07,WNW,292,0.0,-999.0,98,-99.99,,,0.00,Acu-Link.com,2013-11-15 08:05:00,
2013-11-15 03:20:00,26.1,25.6,30.07,NE,45,0.0,-999.0,98,-99.99,,,0.00,Acu-Link.com,2013-11-15 08:20:00,
2013-11-15 03:35:00,25.9,25.4,30.07,WNW,292,0.0,-999.0,98,-99.99,,,0.00,Acu-Link.com,2013-11-15 08:35:00,
2013-11-15 03:50:00,25.7,25.2,30.06,ESE,112,0.0,-999.0,98,-99.99,,,0.00,Acu-Link.com,2013-11-15 08:50:00,
2013-11-15 04:05:00,25.7,25.2,30.07,WNW,292,0.0,-999.0,98,-99.99,,,0.00,Acu-Link.com,2013-11-15 09:05:00,
2013-11-15 04:21:00,25.5,25.0,30.08,NNW,337,0.0,-999.0,98,-99.99,,,0.00,Acu-Link.com,2013-11-15 09:21:00,
2013-11-15 04:36:00,25.5,25.0,30.07,NW,315,0.0,-999.0,98,-99.99,,,0.00,Acu-Link.com,2013-11-15 09:36:00,
2013-11-15 04:51:00,25.3,24.8,30.07,NW,315,0.0,-999.0,98,-99.99,,,0.00,Acu-Link.com,2013-11-15 09:51:00,
2013-11-15 05:06:00,25.3,24.8,30.07,West,270,0.0,-999.0,98,-99.99,,,0.00,Acu-Link.com,2013-11-15 10:06:00,
2013-11-15 05:21:00,25.3,24.8,30.07,NW,315,0.0,-999.0,98,-99.99,,,0.00,Acu-Link.com,2013-11-15 10:21:00,
2013-11-15 05:37:00,25.3,24.8,30.07,ENE,67,0.0,-999.0,98,-99.99,,,0.00,Acu-Link.com,2013-11-15 10:37:00,
2013-11-15 05:52:00,25.3,24.8,30.08,NW,315,0.0,-999.0,98,-99.99,,,0.00,Acu-Link.com,2013-11-15 10:52:00,
2013-11-15 06:07:00,25.3,24.8,30.08,NNE,22,0.0,-999.0,98,-99.99,,,0.00,Acu-Link.com,2013-11-15 11:07:00,
2013-11-15 06:22:00,25.7,25.2,30.07,North,0,1.1,-999.0,98,-99.99,,,0.00,Acu-Link.com,2013-11-15 11:22:00,
2013-11-15 06:38:00,25.7,25.2,30.08,North,0,0.0,-999.0,98,-99.99,,,0.00,Acu-Link.com,2013-11-15 11:38:00,
2013-11-15 06:53:00,25.9,25.4,30.09,ENE,67,0.0,-999.0,98,-99.99,,,0.00,Acu-Link.com,2013-11-15 11:53:00,
2013-11-15 07:08:00,26.1,25.6,30.09,WNW,292,0.0,-999.0,98,-99.99,,,0.00,Acu-Link.com,2013-11-15 12:08:00,
2013-11-15 07:23:00,26.6,26.1,30.09,NNW,337,0.0,-999.0,98,-99.99,,,0.00,Acu-Link.com,2013-11-15 12:23:00,
2013-11-15 07:39:00,27.0,26.5,30.10,ENE,67,0.0,-999.0,98,-99.99,,,0.00,Acu-Link.com,2013-11-15 12:39:00,
2013-11-15 07:54:00,27.5,27.0,30.11,WNW,292,0.0,-999.0,98,-99.99,,,0.00,Acu-Link.com,2013-11-15 12:54:00,
2013-11-15 08:09:00,28.4,27.9,30.10,ESE,112,0.0,-999.0,98,-99.99,,,0.00,Acu-Link.com,2013-11-15 13:09:00,
2013-11-15 08:24:00,29.5,29.0,30.10,West,270,1.1,-999.0,98,-99.99,,,0.00,Acu-Link.com,2013-11-15 13:24:00,
2013-11-15 08:40:00,31.1,30.6,30.10,South,180,1.7,-999.0,98,-99.99,,,0.00,Acu-Link.com,2013-11-15 13:40:00,
2013-11-15 08:55:00,31.8,31.3,30.10,South,180,0.0,-999.0,98,-99.99,,,0.00,Acu-Link.com,2013-11-15 13:55:00,
2013-11-15 09:10:00,33.6,33.1,30.11,SSE,157,0.0,-999.0,98,-99.99,,,0.00,Acu-Link.com,2013-11-15 14:10:00,
2013-11-15 09:25:00,34.2,33.7,30.10,NW,315,0.0,-999.0,98,-99.99,,,0.00,Acu-Link.com,2013-11-15 14:25:00,
2013-11-15 09:40:00,36.7,36.2,30.09,SW,225,0.0,-999.0,98,-99.99,,,0.00,Acu-Link.com,2013-11-15 14:40:00,
2013-11-15 09:56:00,38.3,33.3,30.10,SSW,202,0.0,-999.0,82,-99.99,,,0.00,Acu-Link.com,2013-11-15 14:56:00,
2013-11-15 10:11:00,39.7,32.1,30.10,WNW,292,0.0,-999.0,74,-99.99,,,0.00,Acu-Link.com,2013-11-15 15:11:00,
2013-11-15 10:26:00,40.8,32.1,30.11,WSW,247,0.0,-999.0,71,-99.99,,,0.00,Acu-Link.com,2013-11-15 15:26:00,
2013-11-15 10:41:00,40.8,32.8,30.10,NNE,22,0.0,-999.0,73,-99.99,,,0.00,Acu-Link.com,2013-11-15 15:41:00,
2013-11-15 10:56:00,40.6,33.0,30.08,NW,315,0.0,-999.0,74,-99.99,,,0.00,Acu-Link.com,2013-11-15 15:56:00,
2013-11-15 11:12:00,42.4,33.0,30.08,WSW,247,0.0,-999.0,69,-99.99,,,0.00,Acu-Link.com,2013-11-15 16:12:00,
2013-11-15 11:27:00,42.6,32.8,30.09,WSW,247,0.0,-999.0,68,-99.99,,,0.00,Acu-Link.com,2013-11-15 16:27:00,
2013-11-15 11:42:00,43.7,32.3,30.09,WSW,247,0.0,-999.0,64,-99.99,,,0.00,Acu-Link.com,2013-11-15 16:42:00,
2013-11-15 11:57:00,43.7,33.8,30.08,SW,225,0.0,-999.0,68,-99.99,,,0.00,Acu-Link.com,2013-11-15 16:57:00,
2013-11-15 12:12:00,44.2,32.4,30.08,SW,225,0.0,-999.0,63,-99.99,,,0.00,Acu-Link.com,2013-11-15 17:12:00,
2013-11-15 12:28:00,45.3,33.1,30.07,SW,225,0.0,-999.0,62,-99.99,,,0.00,Acu-Link.com,2013-11-15 17:28:00,
2013-11-15 12:43:00,45.3,34.2,30.07,SW,225,0.0,-999.0,65,-99.99,,,0.00,Acu-Link.com,2013-11-15 17:43:00,
2013-11-15 12:58:00,45.9,34.0,30.07,SSW,202,0.0,-999.0,63,-99.99,,,0.00,Acu-Link.com,2013-11-15 17:58:00,
2013-11-15 13:14:00,45.9,33.6,30.06,NW,315,0.0,-999.0,62,-99.99,,,0.00,Acu-Link.com,2013-11-15 18:14:00,
2013-11-15 13:29:00,47.3,33.7,30.06,SW,225,0.0,-999.0,59,-99.99,,,0.00,Acu-Link.com,2013-11-15 18:29:00,
2013-11-15 13:44:00,47.3,33.7,30.06,WNW,292,0.0,-999.0,59,-99.99,,,0.00,Acu-Link.com,2013-11-15 18:44:00,
2013-11-15 13:59:00,46.9,33.8,30.06,West,270,0.0,-999.0,60,-99.99,,,0.00,Acu-Link.com,2013-11-15 18:59:00,
2013-11-15 14:14:00,46.6,35.1,30.05,WNW,292,0.0,-999.0,64,-99.99,,,0.00,Acu-Link.com,2013-11-15 19:14:00,
2013-11-15 14:30:00,45.9,34.8,30.05,NW,315,0.0,-999.0,65,-99.99,,,0.00,Acu-Link.com,2013-11-15 19:30:00,
2013-11-15 14:45:00,45.0,34.3,30.05,NW,315,0.0,-999.0,66,-99.99,,,0.00,Acu-Link.com,2013-11-15 19:45:00,
2013-11-15 15:00:00,44.1,32.7,30.05,WNW,292,0.0,-999.0,64,-99.99,,,0.00,Acu-Link.com,2013-11-15 20:00:00,
2013-11-15 15:15:00,43.3,31.2,30.05,WNW,292,0.0,-999.0,62,-99.99,,,0.00,Acu-Link.com,2013-11-15 20:15:00,
2013-11-15 15:30:00,42.8,31.5,30.06,WNW,292,0.0,-999.0,64,-99.99,,,0.00,Acu-Link.com,2013-11-15 20:30:00,
2013-11-15 15:46:00,41.9,30.6,30.07,WNW,292,0.0,-999.0,64,-99.99,,,0.00,Acu-Link.com,2013-11-15 20:46:00,
2013-11-15 16:01:00,41.5,30.6,30.07,WNW,292,0.0,-999.0,65,-99.99,,,0.00,Acu-Link.com,2013-11-15 21:01:00,
2013-11-15 16:16:00,41.0,30.5,30.08,WNW,292,0.0,-999.0,66,-99.99,,,0.00,Acu-Link.com,2013-11-15 21:16:00,
2013-11-15 16:31:00,40.5,30.0,30.07,WNW,292,0.0,-999.0,66,-99.99,,,0.00,Acu-Link.com,2013-11-15 21:31:00,
2013-11-15 16:46:00,39.6,30.3,30.07,WNW,292,0.0,-999.0,69,-99.99,,,0.00,Acu-Link.com,2013-11-15 21:46:00,
2013-11-15 17:02:00,38.7,30.1,30.08,NNE,22,0.0,-999.0,71,-99.99,,,0.00,Acu-Link.com,2013-11-15 22:02:00,
2013-11-15 17:17:00,37.2,30.0,30.08,NE,45,0.0,-999.0,75,-99.99,,,0.00,Acu-Link.com,2013-11-15 22:17:00,
2013-11-15 17:32:00,36.9,30.4,30.08,NW,315,0.0,-999.0,77,-99.99,,,0.00,Acu-Link.com,2013-11-15 22:32:00,
2013-11-15 17:47:00,36.0,29.8,30.08,NNE,22,0.0,-999.0,78,-99.99,,,0.00,Acu-Link.com,2013-11-15 22:47:00,
2013-11-15 18:03:00,35.1,30.2,30.08,NNE,22,0.0,-999.0,82,-99.99,,,0.00,Acu-Link.com,2013-11-15 23:03:00,
2013-11-15 18:18:00,34.3,30.6,30.08,ENE,67,0.0,-999.0,86,-99.99,,,0.00,Acu-Link.com,2013-11-15 23:18:00,
2013-11-15 18:33:00,34.2,32.4,30.08,WNW,292,0.0,-999.0,93,-99.99,,,0.00,Acu-Link.com,2013-11-15 23:33:00,
2013-11-15 18:48:00,33.4,32.1,30.08,NE,45,0.0,-999.0,95,-99.99,,,0.00,Acu-Link.com,2013-11-15 23:48:00,
2013-11-15 19:04:00,32.9,31.9,30.08,NE,45,0.0,-999.0,96,-99.99,,,0.00,Acu-Link.com,2013-11-16 00:04:00,
2013-11-15 19:19:00,32.2,31.7,30.07,NE,45,0.0,-999.0,98,-99.99,,,0.00,Acu-Link.com,2013-11-16 00:19:00,
2013-11-15 19:34:00,31.6,31.1,30.08,NW,315,0.0,-999.0,98,-99.99,,,0.00,Acu-Link.com,2013-11-16 00:34:00,
2013-11-15 19:49:00,31.1,30.6,30.08,NW,315,0.0,-999.0,98,-99.99,,,0.00,Acu-Link.com,2013-11-16 00:49:00,
2013-11-15 20:04:00,30.7,30.2,30.08,North,0,0.0,-999.0,98,-99.99,,,0.00,Acu-Link.com,2013-11-16 01:04:00,
2013-11-15 20:20:00,30.6,30.1,30.08,NW,315,0.0,-999.0,98,-99.99,,,0.00,Acu-Link.com,2013-11-16 01:20:00,
2013-11-15 20:35:00,30.6,30.1,30.08,NW,315,0.0,-999.0,98,-99.99,,,0.00,Acu-Link.com,2013-11-16 01:35:00,
2013-11-15 20:50:00,30.2,29.7,30.09,NW,315,0.0,-999.0,98,-99.99,,,0.00,Acu-Link.com,2013-11-16 01:50:00,
2013-11-15 21:05:00,30.2,29.7,30.08,NW,315,0.0,-999.0,98,-99.99,,,0.00,Acu-Link.com,2013-11-16 02:05:00,
2013-11-15 21:21:00,30.0,29.5,30.08,NW,315,0.0,-999.0,98,-99.99,,,0.00,Acu-Link.com,2013-11-16 02:21:00,
2013-11-15 21:36:00,29.8,29.3,30.09,NNE,22,0.0,-999.0,98,-99.99,,,0.00,Acu-Link.com,2013-11-16 02:36:00,
2013-11-15 21:51:00,29.8,29.3,30.08,NW,315,0.0,-999.0,98,-99.99,,,0.00,Acu-Link.com,2013-11-16 02:51:00,
2013-11-15 22:06:00,29.8,29.3,30.09,NW,315,0.0,-999.0,98,-99.99,,,0.00,Acu-Link.com,2013-11-16 03:06:00,
2013-11-15 22:21:00,30.0,29.5,30.10,WNW,292,0.0,-999.0,98,-99.99,,,0.00,Acu-Link.com,2013-11-16 03:21:00,
2013-11-15 22:37:00,29.7,29.2,30.10,NW,315,0.0,-999.0,98,-99.99,,,0.00,Acu-Link.com,2013-11-16 03:37:00,
2013-11-15 22:52:00,29.5,29.0,30.10,NW,315,0.0,-999.0,98,-99.99,,,0.00,Acu-Link.com,2013-11-16 03:52:00,
2013-11-15 23:07:00,30.2,29.7,30.10,WNW,292,0.0,-999.0,98,-99.99,,,0.00,Acu-Link.com,2013-11-16 04:07:00,
2013-11-15 23:23:00,29.7,29.2,30.11,SSE,157,0.0,-999.0,98,-99.99,,,0.00,Acu-Link.com,2013-11-16 04:23:00,
2013-11-15 23:38:00,29.7,29.2,30.11,NNE,22,0.0,-999.0,98,-99.99,,,0.00,Acu-Link.com,2013-11-16 04:38:00,
2013-11-15 23:53:00,29.5,29.0,30.11,NW,315,0.0,-999.0,98,-99.99,,,0.00,Acu-Link.com,2013-11-16 04:53:00,